Tolhuin, Argentina

7:16 PM ART on February 14, 2016 (GMT -0300)
Ushuaia International Malvine Island | | Change Station
CLOSE
Current Station
Airport
Location: Ushuaia,
Elevation: 69 ft
Nearby Weather Stations

Elev 69 ft 54.84 °S, 68.31 °W | Updated 16 minutes ago

Mostly Cloudy
Mostly Cloudy
48 °F
Feels Like 48 °F
N
6
Wind Variable Wind from West

Today
High -- | Low -- °F
--% Chance of Precip.
Yesterday
High -- | Low -- °F
Precip. -- in
Pressure 29.30 in
Visibility 6.2 miles
Clouds Few 4000 ft
Mostly Cloudy 4800 ft
Dew Point 34 °F
Humidity 58%
Rainfall 0.00 in
Snow Depth Not available.
6:19 AM 9:05 PM
Waxing Crescent, 46% visible
METAR SAWH 142200Z 27005KT 9999 VCSH FEW040 BKN048 09/01 Q0992
Pressure 29.30 in
Visibility 6.2 miles
Clouds Few 4000 ft
Mostly Cloudy 4800 ft
Dew Point 34 °F
Humidity 58%
Rainfall 0.00 in
Snow Depth Not available.
6:19 AM 9:05 PM
Waxing Crescent, 46% visible
METAR SAWH 142200Z 27005KT 9999 VCSH FEW040 BKN048 09/01 Q0992

10-Day Weather Forecast

No radar image for this location.
×

Almanac

Astronomy

Feb. 14, 2016 Rise Set
Actual Time
Civil Twilight
Nautical Twilight
Astronomical Twilight
Moon
Length of Visible Light
Length of Day
Tomorrow will be .
, % of the Moon is Illuminated

Today's Extremes

Country Highs Country Lows

Community

WunderPhotos

Upload Photos

1,892,893 photos uploaded!

WunderBlog® & News

Nearby

Air Quality

  Air Quality AQ Index Pollutant
Not available.

Snow Depth

Station Depth Elevation

Earthquake Activity

City Distance Mag. Time & Date
Minimum magnitude displayed is 2.5.

Coastal Water Temperatures

Place Temperature

Stations

Nearby Weather Stations

Station Location Temp. Windchill Dew Point Humidity Wind Precip. Elev Updated Type